createdAt,value
2022-12-04T00:01:18.668Z,101627.88
2022-12-04T00:03:46.884Z,101633.03
2022-12-04T00:06:15.994Z,101626.16
2022-12-04T00:08:44.499Z,101629.59
2022-12-04T00:11:13.528Z,101630.44
2022-12-04T00:13:42.186Z,101638.22
2022-12-04T00:16:12.067Z,101637.38
2022-12-04T00:18:42.217Z,101635.56
2022-12-04T00:21:11.857Z,101641.66
2022-12-04T00:23:40.199Z,101631.31
2022-12-04T00:26:09.527Z,101630.47
2022-12-04T00:28:38.606Z,101621.84
2022-12-04T00:31:07.638Z,101627.00
2022-12-04T00:33:35.709Z,101620.97
2022-12-04T00:36:07.899Z,101619.25
2022-12-04T00:38:36.202Z,101626.97
2022-12-04T00:41:04.607Z,101623.56
2022-12-04T00:43:32.850Z,101618.41
2022-12-04T00:46:00.669Z,101622.72
2022-12-04T00:48:28.708Z,101624.41
2022-12-04T00:50:58.267Z,101617.53
2022-12-04T00:53:27.402Z,101620.09
2022-12-04T00:55:55.161Z,101620.09
2022-12-04T00:58:23.180Z,101616.69
2022-12-04T01:00:51.204Z,101620.97
2022-12-04T01:03:19.786Z,101620.09
2022-12-04T01:05:47.873Z,101614.09
2022-12-04T01:08:15.829Z,101617.50
2022-12-04T01:10:45.051Z,101618.34
2022-12-04T01:13:12.842Z,101617.50
2022-12-04T01:15:42.455Z,101622.69
2022-12-04T01:18:10.624Z,101622.66
2022-12-04T01:20:38.544Z,101614.94
2022-12-04T01:23:06.500Z,101623.53
2022-12-04T01:25:34.422Z,101625.19
2022-12-04T01:28:03.583Z,101621.81
2022-12-04T01:30:31.390Z,101627.00
2022-12-04T01:32:59.286Z,101621.81
2022-12-04T01:35:27.167Z,101615.63
2022-12-04T01:37:54.945Z,101604.50
2022-12-04T01:40:23.069Z,101609.72
2022-12-04T01:42:50.933Z,101611.50
2022-12-04T01:45:42.242Z,101597.72
2022-12-04T01:48:14.831Z,101596.81
2022-12-04T01:50:43.532Z,101600.25
2022-12-04T01:53:12.179Z,101599.41
2022-12-04T01:55:40.472Z,101601.13
2022-12-04T01:58:08.802Z,101605.44
2022-12-04T02:00:36.648Z,101603.72
2022-12-04T02:03:05.904Z,101607.06
2022-12-04T02:05:33.815Z,101602.00
2022-12-04T02:08:04.602Z,101596.84
2022-12-04T02:10:37.910Z,101591.72
2022-12-04T02:13:09.157Z,101589.13
2022-12-04T02:15:42.416Z,101584.81
2022-12-04T02:18:19.135Z,101581.31
2022-12-04T02:20:52.343Z,101589.13
2022-12-04T02:23:38.326Z,101576.16
2022-12-04T02:26:21.063Z,101581.28
2022-12-04T02:28:53.040Z,101584.78
2022-12-04T02:31:24.110Z,101579.63
2022-12-04T02:33:57.634Z,101582.03
2022-12-04T02:36:28.884Z,101579.59
2022-12-04T02:38:58.495Z,101571.84
2022-12-04T02:41:28.868Z,101571.84
2022-12-04T02:44:01.681Z,101564.88
2022-12-04T02:46:32.974Z,101567.47
2022-12-04T02:49:04.346Z,101569.25
2022-12-04T02:51:34.506Z,101563.19
2022-12-04T02:54:06.106Z,101556.38
2022-12-04T02:56:37.011Z,101542.63
2022-12-04T02:59:09.437Z,101547.75
2022-12-04T03:01:41.262Z,101552.06
2022-12-04T03:04:13.624Z,101552.06
2022-12-04T03:06:43.166Z,101548.66
2022-12-04T03:09:13.069Z,101545.16
2022-12-04T03:11:43.519Z,101551.19
2022-12-04T03:14:14.979Z,101550.38
2022-12-04T03:16:43.700Z,101553.81
2022-12-04T03:19:14.670Z,101548.66
2022-12-04T03:21:48.893Z,101546.06
2022-12-04T03:24:20.622Z,101542.59
2022-12-04T03:26:49.527Z,101548.50
2022-12-04T03:29:22.192Z,101540.88
2022-12-04T03:31:51.876Z,101542.63
2022-12-04T03:34:27.458Z,101541.75
2022-12-04T03:37:00.534Z,101547.78
2022-12-04T03:39:32.489Z,101547.78
2022-12-04T03:42:01.615Z,101550.34
2022-12-04T03:44:36.768Z,101540.91
2022-12-04T03:47:07.987Z,101540.91
2022-12-04T03:49:43.520Z,101544.34
2022-12-04T03:52:15.522Z,101552.03
2022-12-04T03:54:47.301Z,101552.91
2022-12-04T03:57:17.699Z,101547.78
2022-12-04T03:59:55.586Z,101546.88
2022-12-04T04:02:26.077Z,101548.63
2022-12-04T04:04:56.942Z,101546.03
2022-12-04T04:07:34.852Z,101541.75
2022-12-04T04:10:07.751Z,101541.75
2022-12-04T04:12:40.982Z,101529.72
2022-12-04T04:15:31.125Z,101540.03
2022-12-04T04:18:17.353Z,101544.34
2022-12-04T04:21:04.888Z,101542.59
2022-12-04T04:23:52.851Z,101538.31
2022-12-04T04:26:21.953Z,101548.66
2022-12-04T04:28:49.786Z,101540.88
2022-12-04T04:31:26.009Z,101531.44
2022-12-04T04:34:00.735Z,101529.72
2022-12-04T04:36:36.806Z,101524.53
2022-12-04T04:39:09.336Z,101528.84
2022-12-04T04:41:41.735Z,101529.69
2022-12-04T04:44:15.432Z,101540.88
2022-12-04T04:46:47.768Z,101541.78
2022-12-04T04:49:16.273Z,101532.28
2022-12-04T04:51:44.676Z,101528.84
2022-12-04T04:54:14.742Z,101539.19
2022-12-04T04:56:43.472Z,101531.44
2022-12-04T04:59:12.767Z,101529.72
2022-12-04T05:01:41.435Z,101538.31
2022-12-04T05:04:11.822Z,101532.28
2022-12-04T05:06:39.865Z,101533.16
2022-12-04T05:09:07.662Z,101534.88
2022-12-04T05:11:35.497Z,101542.59
2022-12-04T05:14:03.608Z,101536.59
2022-12-04T05:16:32.377Z,101534.00
2022-12-04T05:19:17.643Z,101534.88
2022-12-04T05:21:46.872Z,101543.47
2022-12-04T05:24:14.677Z,101543.47
2022-12-04T05:26:42.530Z,101537.44
2022-12-04T05:29:10.303Z,101530.56
2022-12-04T05:31:38.372Z,101523.69
2022-12-04T05:34:06.497Z,101526.28
2022-12-04T05:36:34.393Z,101543.47
2022-12-04T05:39:03.546Z,101535.72
2022-12-04T05:41:31.407Z,101540.91
2022-12-04T05:43:59.217Z,101543.47
2022-12-04T05:46:27.062Z,101546.94
2022-12-04T05:48:54.896Z,101544.34
2022-12-04T05:51:22.645Z,101546.06
2022-12-04T05:53:52.568Z,101540.91
2022-12-04T05:56:22.043Z,101534.00
2022-12-04T05:58:50.166Z,101526.25
2022-12-04T06:01:19.705Z,101527.97
2022-12-04T06:03:47.576Z,101530.53
2022-12-04T06:06:21.010Z,101526.22
2022-12-04T06:08:50.050Z,101534.00
2022-12-04T06:11:20.555Z,101534.84
2022-12-04T06:13:49.920Z,101526.22
2022-12-04T06:16:19.130Z,101525.38
2022-12-04T06:18:50.626Z,101534.88
2022-12-04T06:21:19.169Z,101539.16
2022-12-04T06:23:46.971Z,101534.00
2022-12-04T06:26:14.798Z,101529.69
2022-12-04T06:28:42.534Z,101526.22
2022-12-04T06:31:13.705Z,101525.38
2022-12-04T06:33:41.635Z,101529.69
2022-12-04T06:36:14.125Z,101534.88
2022-12-04T06:38:42.762Z,101521.94
2022-12-04T06:41:12.605Z,101524.50
2022-12-04T06:43:40.937Z,101525.38
2022-12-04T06:46:12.814Z,101534.84
2022-12-04T06:48:41.182Z,101540.88
2022-12-04T06:51:12.742Z,101531.41
2022-12-04T06:53:41.176Z,101521.09
2022-12-04T06:56:11.221Z,101526.25
2022-12-04T06:58:39.090Z,101523.66
2022-12-04T07:01:08.105Z,101530.56
2022-12-04T07:03:37.386Z,101528.81
2022-12-04T07:06:13.298Z,101524.50
2022-12-04T07:08:41.127Z,101533.16
2022-12-04T07:11:09.111Z,101529.72
2022-12-04T07:13:36.912Z,101527.09
2022-12-04T07:16:07.839Z,101538.22
2022-12-04T07:18:37.841Z,101533.91
2022-12-04T07:21:07.307Z,101520.22
2022-12-04T07:23:35.157Z,101525.34
2022-12-04T07:26:05.899Z,101525.38
2022-12-04T07:28:33.878Z,101521.03
2022-12-04T07:31:05.459Z,101525.31
2022-12-04T07:33:33.363Z,101519.31
2022-12-04T07:36:04.275Z,101533.13
2022-12-04T07:38:33.513Z,101528.84
2022-12-04T07:41:02.752Z,101536.56
2022-12-04T07:43:31.683Z,101540.03
2022-12-04T07:46:00.132Z,101539.13
2022-12-04T07:48:33.143Z,101543.44
2022-12-04T07:51:08.888Z,101546.88
2022-12-04T07:53:40.027Z,101531.41
2022-12-04T07:56:08.788Z,101538.31
2022-12-04T07:58:36.610Z,101531.41
2022-12-04T08:01:09.620Z,101531.41
2022-12-04T08:03:42.125Z,101539.16
2022-12-04T08:06:14.693Z,101545.19
2022-12-04T08:08:42.561Z,101548.63
2022-12-04T08:11:13.262Z,101551.22
2022-12-04T08:13:41.078Z,101558.09
2022-12-04T08:16:10.981Z,101551.22
2022-12-04T08:18:39.848Z,101552.94
2022-12-04T08:21:09.113Z,101547.78
2022-12-04T08:23:38.986Z,101552.94
2022-12-04T08:26:07.339Z,101550.38
2022-12-04T08:28:35.505Z,101551.19
2022-12-04T08:31:04.552Z,101549.47
2022-12-04T08:33:32.711Z,101546.00
2022-12-04T08:36:01.132Z,101552.06
2022-12-04T08:38:29.118Z,101555.53
2022-12-04T08:41:02.194Z,101554.63
2022-12-04T08:43:30.352Z,101551.19
2022-12-04T08:45:58.886Z,101549.44
2022-12-04T08:48:27.495Z,101551.16
2022-12-04T08:50:55.866Z,101552.88
2022-12-04T08:53:25.243Z,101550.28
2022-12-04T08:55:53.407Z,101553.75
2022-12-04T08:58:22.891Z,101538.28
2022-12-04T09:00:51.070Z,101542.63
2022-12-04T09:03:23.651Z,101541.72
2022-12-04T09:05:59.790Z,101547.72
2022-12-04T09:08:27.612Z,101551.16
2022-12-04T09:10:55.461Z,101564.03
2022-12-04T09:13:24.711Z,101564.09
2022-12-04T09:15:52.550Z,101563.16
2022-12-04T09:18:20.392Z,101569.19
2022-12-04T09:20:56.972Z,101566.59
2022-12-04T09:23:25.092Z,101568.41
2022-12-04T09:25:53.053Z,101570.06
2022-12-04T09:28:21.202Z,101562.25
2022-12-04T09:30:59.176Z,101560.56
2022-12-04T09:33:27.259Z,101564.00
2022-12-04T09:35:55.295Z,101557.94
2022-12-04T09:38:23.088Z,101563.09
2022-12-04T09:40:55.864Z,101552.72
2022-12-04T09:43:30.375Z,101539.81
2022-12-04T09:46:02.995Z,101538.91
2022-12-04T09:48:34.803Z,101547.59
2022-12-04T09:51:03.266Z,101539.78
2022-12-04T09:53:38.187Z,101539.72
2022-12-04T09:56:08.397Z,101532.78
2022-12-04T09:58:41.436Z,101530.31
2022-12-04T10:01:20.868Z,101530.28
2022-12-04T10:03:49.039Z,101523.47
2022-12-04T10:06:20.453Z,101530.28
2022-12-04T10:08:52.669Z,101517.50
2022-12-04T10:11:30.692Z,101520.03
2022-12-04T10:14:18.248Z,101516.47
2022-12-04T10:17:13.503Z,101516.47
2022-12-04T10:19:47.351Z,101507.00
2022-12-04T10:22:20.603Z,101501.69
2022-12-04T10:24:50.702Z,101514.66
2022-12-04T10:27:23.288Z,101506.94
2022-12-04T10:29:54.815Z,101489.81
2022-12-04T10:32:28.481Z,101495.69
2022-12-04T10:34:58.910Z,101502.66
2022-12-04T10:37:26.838Z,101485.34
2022-12-04T10:39:58.831Z,101489.56
2022-12-04T10:42:33.423Z,101493.91
2022-12-04T10:45:01.276Z,101486.22
2022-12-04T10:47:31.054Z,101485.22
2022-12-04T10:50:01.898Z,101487.72
2022-12-04T10:52:29.811Z,101483.59
2022-12-04T10:55:05.092Z,101485.91
2022-12-04T10:57:37.894Z,101471.13
2022-12-04T11:00:25.238Z,101467.78
2022-12-04T11:02:55.806Z,101478.97
2022-12-04T11:05:26.593Z,101470.22
2022-12-04T11:07:55.321Z,101472.25
2022-12-04T11:10:26.699Z,101476.59
2022-12-04T11:12:56.037Z,101475.66
2022-12-04T11:15:24.647Z,101472.09
2022-12-04T11:17:53.931Z,101472.34
2022-12-04T11:20:23.963Z,101473.16
2022-12-04T11:22:54.068Z,101470.72
2022-12-04T11:25:23.098Z,101459.25
2022-12-04T11:27:53.365Z,101462.44
2022-12-04T11:30:23.930Z,101468.53
2022-12-04T11:32:52.015Z,101458.19
2022-12-04T11:35:23.806Z,101455.94
2022-12-04T11:37:57.636Z,101456.59
2022-12-04T11:40:26.462Z,101464.22
2022-12-04T11:43:05.904Z,101472.06
2022-12-04T11:45:34.067Z,101471.13
2022-12-04T11:48:04.468Z,101459.88
2022-12-04T11:50:39.948Z,101447.97
2022-12-04T11:53:16.109Z,101443.59
2022-12-04T11:56:10.316Z,101448.97
2022-12-04T11:58:52.568Z,101444.50
2022-12-04T12:01:29.723Z,101441.91
2022-12-04T12:04:09.440Z,101439.28
2022-12-04T12:06:40.624Z,101444.41
2022-12-04T12:09:22.437Z,101444.53
2022-12-04T12:11:53.548Z,101436.78
2022-12-04T12:14:28.193Z,101437.59
2022-12-04T12:17:00.357Z,101430.81
2022-12-04T12:19:46.901Z,101432.66
2022-12-04T12:22:26.140Z,101436.00
2022-12-04T12:25:01.518Z,101431.88
2022-12-04T12:27:42.248Z,101432.69
2022-12-04T12:30:16.221Z,101424.75
2022-12-04T12:33:09.303Z,101428.16
2022-12-04T12:35:40.030Z,101434.41
2022-12-04T12:38:12.716Z,101437.81
2022-12-04T12:40:42.776Z,101435.97
2022-12-04T12:43:15.921Z,101434.38
2022-12-04T12:45:48.362Z,101431.50
2022-12-04T12:48:24.856Z,101429.97
2022-12-04T12:51:14.764Z,101433.44
2022-12-04T12:53:47.974Z,101439.53
2022-12-04T12:56:17.298Z,101434.22
2022-12-04T12:58:48.356Z,101427.69
2022-12-04T13:01:19.685Z,101431.94
2022-12-04T13:03:53.550Z,101443.66
2022-12-04T13:06:25.915Z,101439.44
2022-12-04T13:09:05.008Z,101436.69
2022-12-04T13:11:33.793Z,101434.13
2022-12-04T13:14:04.409Z,101434.88
2022-12-04T13:16:34.905Z,101430.50
2022-12-04T13:19:09.116Z,101432.06
2022-12-04T13:21:38.759Z,101433.59
2022-12-04T13:24:47.590Z,101421.56
2022-12-04T13:27:21.688Z,101420.78
2022-12-04T13:30:02.837Z,101412.31
2022-12-04T13:32:47.440Z,101406.31
2022-12-04T13:35:20.906Z,101400.16
2022-12-04T13:38:03.692Z,101395.91
2022-12-04T13:40:38.583Z,101397.84
2022-12-04T13:43:20.392Z,101388.19
2022-12-04T13:45:50.604Z,101377.53
2022-12-04T13:48:29.474Z,101379.22
2022-12-04T13:51:06.634Z,101389.09
2022-12-04T13:53:37.271Z,101384.97
2022-12-04T13:56:10.313Z,101377.09
2022-12-04T13:58:40.160Z,101374.81
2022-12-04T14:01:21.843Z,101370.38
2022-12-04T14:03:50.942Z,101371.59
2022-12-04T14:06:23.735Z,101373.03
2022-12-04T14:08:56.127Z,101374.72
2022-12-04T14:11:25.812Z,101379.81
2022-12-04T14:13:55.223Z,101387.88
2022-12-04T14:16:25.101Z,101383.19
2022-12-04T14:18:56.294Z,101390.31
2022-12-04T14:21:24.691Z,101387.91
2022-12-04T14:23:53.294Z,101392.78
2022-12-04T14:26:48.943Z,101383.16
2022-12-04T14:29:33.833Z,101389.13
2022-12-04T14:32:09.049Z,101376.41
2022-12-04T14:34:38.708Z,101374.94
2022-12-04T14:37:06.612Z,101383.41
2022-12-04T14:39:37.003Z,101383.59
2022-12-04T14:42:15.148Z,101384.34
2022-12-04T14:44:45.729Z,101380.91
2022-12-04T14:47:21.552Z,101389.31
2022-12-04T14:50:14.909Z,101385.06
2022-12-04T14:52:45.862Z,101363.66
2022-12-04T14:55:21.625Z,101371.03
2022-12-04T14:57:55.547Z,101369.16
2022-12-04T15:00:24.977Z,101372.50
2022-12-04T15:02:55.539Z,101374.91
2022-12-04T15:05:26.202Z,101366.28
2022-12-04T15:07:56.209Z,101353.72
2022-12-04T15:10:42.434Z,101369.06
2022-12-04T15:13:16.063Z,101372.16
2022-12-04T15:15:47.203Z,101374.66
2022-12-04T15:18:16.512Z,101374.16
2022-12-04T15:20:46.175Z,101373.34
2022-12-04T15:23:15.911Z,101383.56
2022-12-04T15:25:45.951Z,101393.78
2022-12-04T15:28:18.319Z,101388.69
2022-12-04T15:30:46.893Z,101387.56
2022-12-04T15:33:21.148Z,101384.22
2022-12-04T15:35:51.882Z,101392.97
2022-12-04T15:38:19.761Z,101391.22
2022-12-04T15:40:52.706Z,101393.75
2022-12-04T15:43:27.735Z,101388.34
2022-12-04T15:45:56.053Z,101393.50
2022-12-04T15:48:25.926Z,101390.34
2022-12-04T15:51:02.466Z,101388.66
2022-12-04T15:53:32.396Z,101385.25
2022-12-04T15:56:03.233Z,101389.47
2022-12-04T15:58:33.492Z,101389.47
2022-12-04T16:01:02.865Z,101387.66
2022-12-04T16:03:33.135Z,101387.69
2022-12-04T16:06:09.842Z,101382.56
2022-12-04T16:08:39.968Z,101386.72
2022-12-04T16:11:22.195Z,101394.56
2022-12-04T16:14:03.847Z,101388.38
2022-12-04T16:16:31.808Z,101395.16
2022-12-04T16:18:59.914Z,101393.56
2022-12-04T16:21:31.111Z,101389.22
2022-12-04T16:24:04.507Z,101391.00
2022-12-04T16:26:32.831Z,101398.59
2022-12-04T16:29:02.019Z,101389.03
2022-12-04T16:31:30.280Z,101383.19
2022-12-04T16:33:58.232Z,101375.50
2022-12-04T16:36:26.060Z,101372.88
2022-12-04T16:38:54.163Z,101374.53
2022-12-04T16:41:22.338Z,101377.97
2022-12-04T16:43:56.055Z,101384.03
2022-12-04T16:46:26.925Z,101377.88
2022-12-04T16:48:54.967Z,101385.69
2022-12-04T16:51:24.349Z,101378.81
2022-12-04T16:53:53.128Z,101380.59
2022-12-04T16:56:21.725Z,101380.78
2022-12-04T16:58:50.850Z,101380.00
2022-12-04T17:01:24.640Z,101385.88
2022-12-04T17:03:53.888Z,101382.38
2022-12-04T17:06:21.775Z,101377.19
2022-12-04T17:08:49.576Z,101385.16
2022-12-04T17:11:18.354Z,101379.78
2022-12-04T17:13:46.528Z,101376.31
2022-12-04T17:16:17.654Z,101377.16
2022-12-04T17:18:47.589Z,101386.63
2022-12-04T17:21:16.766Z,101371.13
2022-12-04T17:23:44.673Z,101378.81
2022-12-04T17:26:14.255Z,101376.63
2022-12-04T17:28:42.202Z,101370.31
2022-12-04T17:31:14.987Z,101370.09
2022-12-04T17:33:43.156Z,101368.59
2022-12-04T17:36:12.101Z,101378.94
2022-12-04T17:38:41.696Z,101370.38
2022-12-04T17:41:13.637Z,101373.69
2022-12-04T17:43:42.507Z,101381.59
2022-12-04T17:46:11.278Z,101374.25
2022-12-04T17:48:39.374Z,101367.47
2022-12-04T17:51:08.889Z,101371.09
2022-12-04T17:53:36.934Z,101375.22
2022-12-04T17:56:08.765Z,101368.16
2022-12-04T17:58:37.134Z,101360.44
2022-12-04T18:01:06.487Z,101370.06
2022-12-04T18:03:34.669Z,101360.91
2022-12-04T18:06:12.284Z,101367.69
2022-12-04T18:08:42.928Z,101362.59
2022-12-04T18:11:16.007Z,101359.88
2022-12-04T18:13:43.874Z,101356.41
2022-12-04T18:16:12.505Z,101357.50
2022-12-04T18:18:40.748Z,101350.63
2022-12-04T18:21:10.225Z,101352.06
2022-12-04T18:23:44.450Z,101359.13
2022-12-04T18:26:13.044Z,101358.19
2022-12-04T18:28:42.752Z,101354.59
2022-12-04T18:31:10.747Z,101354.50
2022-12-04T18:33:40.655Z,101348.63
2022-12-04T18:36:10.982Z,101359.75
2022-12-04T18:38:38.870Z,101364.03
2022-12-04T18:41:08.568Z,101365.94
2022-12-04T18:43:37.130Z,101362.44
2022-12-04T18:46:08.261Z,101369.25
2022-12-04T18:48:37.140Z,101363.03
2022-12-04T18:51:15.160Z,101368.50
2022-12-04T18:53:43.086Z,101365.91
2022-12-04T18:56:10.997Z,101357.88
2022-12-04T18:58:38.932Z,101362.38
2022-12-04T19:01:09.190Z,101370.16
2022-12-04T19:03:37.132Z,101361.44
2022-12-04T19:06:05.260Z,101363.28
2022-12-04T19:08:36.578Z,101370.38
2022-12-04T19:11:07.785Z,101371.97
2022-12-04T19:13:35.789Z,101375.28
2022-12-04T19:16:04.282Z,101371.09
2022-12-04T19:18:33.853Z,101370.66
2022-12-04T19:21:01.703Z,101366.91
2022-12-04T19:23:29.534Z,101369.13
2022-12-04T19:25:57.682Z,101368.50
2022-12-04T19:28:26.153Z,101366.09
2022-12-04T19:30:54.063Z,101377.34
2022-12-04T19:33:22.978Z,101377.06
2022-12-04T19:35:59.410Z,101373.44
2022-12-04T19:38:27.492Z,101372.44
2022-12-04T19:41:06.409Z,101374.19
2022-12-04T19:43:34.360Z,101372.44
2022-12-04T19:46:02.545Z,101380.16
2022-12-04T19:48:30.515Z,101373.78
2022-12-04T19:51:04.869Z,101373.59
2022-12-04T19:53:36.371Z,101366.31
2022-12-04T19:56:12.236Z,101374.19
2022-12-04T19:58:43.828Z,101373.28
2022-12-04T20:01:14.329Z,101372.44
2022-12-04T20:03:42.262Z,101367.19
2022-12-04T20:06:14.117Z,101363.84
2022-12-04T20:08:42.876Z,101361.28
2022-12-04T20:11:12.614Z,101362.97
2022-12-04T20:13:41.077Z,101363.94
2022-12-04T20:16:13.044Z,101356.94
2022-12-04T20:18:42.309Z,101352.56
2022-12-04T20:21:12.557Z,101349.84
2022-12-04T20:23:41.241Z,101342.28
2022-12-04T20:26:10.786Z,101346.63
2022-12-04T20:28:39.024Z,101338.75
2022-12-04T20:31:13.197Z,101341.34
2022-12-04T20:33:41.884Z,101344.66
2022-12-04T20:36:12.262Z,101339.66
2022-12-04T20:38:40.713Z,101340.41
2022-12-04T20:41:10.260Z,101338.88
2022-12-04T20:43:38.456Z,101341.25
2022-12-04T20:46:15.089Z,101340.63
2022-12-04T20:48:47.931Z,101342.16
2022-12-04T20:51:18.575Z,101346.25
2022-12-04T20:53:46.836Z,101344.84
2022-12-04T20:56:15.245Z,101342.88
2022-12-04T20:58:43.156Z,101343.72
2022-12-04T21:01:13.032Z,101347.25
2022-12-04T21:03:41.059Z,101340.22
2022-12-04T21:06:13.115Z,101343.84
2022-12-04T21:08:55.735Z,101345.88
2022-12-04T21:11:25.292Z,101351.81
2022-12-04T21:14:10.986Z,101349.28
2022-12-04T21:16:39.015Z,101348.34
2022-12-04T21:19:07.867Z,101335.25
2022-12-04T21:21:36.661Z,101338.59
2022-12-04T21:24:07.762Z,101331.84
2022-12-04T21:26:36.092Z,101336.22
2022-12-04T21:29:04.293Z,101333.69
2022-12-04T21:31:32.797Z,101333.13
2022-12-04T21:34:01.848Z,101333.63
2022-12-04T21:36:29.923Z,101333.41
2022-12-04T21:38:58.248Z,101336.91
2022-12-04T21:41:45.159Z,101330.03
2022-12-04T21:44:14.644Z,101334.31
2022-12-04T21:46:42.687Z,101329.13
2022-12-04T21:49:10.827Z,101334.25
2022-12-04T21:54:27.406Z,101330.75
2022-12-04T21:56:57.271Z,101328.16
2022-12-04T21:59:25.599Z,101323.78
2022-12-04T22:01:53.950Z,101327.22
2022-12-04T22:04:22.119Z,101321.47
2022-12-04T22:06:49.921Z,101317.81
2022-12-04T22:09:18.220Z,101315.38
2022-12-04T22:11:46.129Z,101320.50
2022-12-04T22:14:15.370Z,101317.84
2022-12-04T22:16:43.612Z,101323.03
2022-12-04T22:19:11.912Z,101315.19
2022-12-04T22:21:40.224Z,101320.44
2022-12-04T22:24:10.371Z,101313.44
2022-12-04T22:26:38.773Z,101313.72
2022-12-04T22:29:27.321Z,101317.88
2022-12-04T22:31:56.348Z,101311.09
2022-12-04T22:34:24.155Z,101310.97
2022-12-04T22:36:52.013Z,101304.28
2022-12-04T22:39:19.982Z,101306.97
2022-12-04T22:41:47.799Z,101306.19
2022-12-04T22:44:15.598Z,101304.34
2022-12-04T22:46:43.878Z,101306.13
2022-12-04T22:49:13.151Z,101312.47
2022-12-04T22:51:40.912Z,101303.69
2022-12-04T22:54:13.762Z,101303.56
2022-12-04T22:56:42.217Z,101294.81
2022-12-04T22:59:10.274Z,101293.63
2022-12-04T23:01:38.258Z,101294.38
2022-12-04T23:04:06.118Z,101291.66
2022-12-04T23:06:35.500Z,101289.69
2022-12-04T23:09:06.553Z,101294.59
2022-12-04T23:11:34.794Z,101296.56
2022-12-04T23:14:03.898Z,101286.31
2022-12-04T23:16:33.021Z,101283.94
2022-12-04T23:19:00.877Z,101286.94
2022-12-04T23:21:29.434Z,101287.53
2022-12-04T23:23:58.680Z,101297.19
2022-12-04T23:26:28.834Z,101292.66
2022-12-04T23:28:57.285Z,101295.72
2022-12-04T23:31:25.631Z,101296.16
2022-12-04T23:33:53.735Z,101301.69
2022-12-04T23:36:22.002Z,101290.34
2022-12-04T23:38:50.168Z,101289.56
2022-12-04T23:41:20.727Z,101294.19
2022-12-04T23:43:49.503Z,101295.84
2022-12-04T23:46:20.580Z,101286.06
2022-12-04T23:48:48.879Z,101285.03
2022-12-04T23:51:19.064Z,101288.41
2022-12-04T23:53:47.764Z,101276.72
2022-12-04T23:56:17.554Z,101274.84
2022-12-04T23:58:48.740Z,101279.19
